createdAt,value
2023-03-14T00:01:33.181Z,22.00
2023-03-14T00:04:00.470Z,22.06
2023-03-14T00:06:27.449Z,20.50
2023-03-14T00:08:54.961Z,18.35
2023-03-14T00:11:21.842Z,17.82
2023-03-14T00:13:48.942Z,19.60
2023-03-14T00:16:15.730Z,20.33
2023-03-14T00:18:42.566Z,20.68
2023-03-14T00:21:09.552Z,20.96
2023-03-14T00:23:36.339Z,21.11
2023-03-14T00:26:03.099Z,21.18
2023-03-14T00:28:29.827Z,21.30
2023-03-14T00:30:56.721Z,21.38
2023-03-14T00:33:23.460Z,21.49
2023-03-14T00:35:50.219Z,21.59
2023-03-14T00:38:16.963Z,21.66
2023-03-14T00:40:43.706Z,21.76
2023-03-14T00:43:10.458Z,21.76
2023-03-14T00:45:37.235Z,21.78
2023-03-14T00:48:04.010Z,21.91
2023-03-14T00:50:30.751Z,21.91
2023-03-14T00:52:57.535Z,22.04
2023-03-14T00:55:24.282Z,19.51
2023-03-14T00:57:51.042Z,18.69
2023-03-14T01:00:17.795Z,19.56
2023-03-14T01:02:44.598Z,20.42
2023-03-14T01:05:11.426Z,20.74
2023-03-14T01:07:38.226Z,20.99
2023-03-14T01:10:04.978Z,21.15
2023-03-14T01:12:31.751Z,21.38
2023-03-14T01:14:58.522Z,21.49
2023-03-14T01:17:25.263Z,21.54
2023-03-14T01:19:52.065Z,21.59
2023-03-14T01:22:18.850Z,21.83
2023-03-14T01:24:45.667Z,21.78
2023-03-14T01:27:12.434Z,21.88
2023-03-14T01:29:39.279Z,21.88
2023-03-14T01:32:06.069Z,21.97
2023-03-14T01:34:32.803Z,22.04
2023-03-14T01:36:59.573Z,19.24
2023-03-14T01:39:26.337Z,17.78
2023-03-14T01:41:53.102Z,19.35
2023-03-14T01:44:19.863Z,20.12
2023-03-14T01:46:46.717Z,20.56
2023-03-14T01:49:13.480Z,20.77
2023-03-14T01:51:40.232Z,21.16
2023-03-14T01:54:06.987Z,21.28
2023-03-14T01:56:33.759Z,21.39
2023-03-14T01:59:00.527Z,21.44
2023-03-14T02:01:27.389Z,21.54
2023-03-14T02:03:54.473Z,21.61
2023-03-14T02:06:21.297Z,21.69
2023-03-14T02:08:50.430Z,21.75
2023-03-14T02:11:17.309Z,21.81
2023-03-14T02:13:44.065Z,21.90
2023-03-14T02:16:10.886Z,21.92
2023-03-14T02:18:37.642Z,21.83
2023-03-14T02:21:04.384Z,21.13
2023-03-14T02:23:31.142Z,21.56
2023-03-14T02:25:57.887Z,21.85
2023-03-14T02:28:24.695Z,22.03
2023-03-14T02:30:51.435Z,21.95
2023-03-14T02:33:19.921Z,22.06
2023-03-14T02:35:46.960Z,19.79
2023-03-14T02:38:13.809Z,17.62
2023-03-14T02:40:40.593Z,18.16
2023-03-14T02:43:07.407Z,19.90
2023-03-14T02:45:34.179Z,20.18
2023-03-14T02:48:00.933Z,20.82
2023-03-14T02:50:27.715Z,20.94
2023-03-14T02:52:54.436Z,21.00
2023-03-14T02:55:21.184Z,21.22
2023-03-14T02:57:47.936Z,21.15
2023-03-14T03:00:15.666Z,21.48
2023-03-14T03:02:42.410Z,21.47
2023-03-14T03:05:09.160Z,21.66
2023-03-14T03:07:35.922Z,21.67
2023-03-14T03:10:02.647Z,21.72
2023-03-14T03:12:29.390Z,21.78
2023-03-14T03:14:56.136Z,21.89
2023-03-14T03:17:22.851Z,21.80
2023-03-14T03:19:49.600Z,22.03
2023-03-14T03:22:16.374Z,21.96
2023-03-14T03:24:43.127Z,21.93
2023-03-14T03:27:09.952Z,18.76
2023-03-14T03:29:36.706Z,17.36
2023-03-14T03:32:03.515Z,18.59
2023-03-14T03:34:30.259Z,20.08
2023-03-14T03:36:57.007Z,20.28
2023-03-14T03:39:23.748Z,20.61
2023-03-14T03:41:50.507Z,20.77
2023-03-14T03:44:17.267Z,20.97
2023-03-14T03:46:43.996Z,21.05
2023-03-14T03:49:10.744Z,21.21
2023-03-14T03:51:37.489Z,21.30
2023-03-14T03:54:04.231Z,21.53
2023-03-14T03:56:32.402Z,21.57
2023-03-14T03:58:59.168Z,21.68
2023-03-14T04:01:25.980Z,21.74
2023-03-14T04:03:52.780Z,21.76
2023-03-14T04:06:19.644Z,21.89
2023-03-14T04:08:46.469Z,21.96
2023-03-14T04:11:13.296Z,21.82
2023-03-14T04:13:40.032Z,21.89
2023-03-14T04:16:06.825Z,22.04
2023-03-14T04:18:33.622Z,21.09
2023-03-14T04:21:00.409Z,18.19
2023-03-14T04:23:27.272Z,18.52
2023-03-14T04:25:54.031Z,19.97
2023-03-14T04:28:20.794Z,20.45
2023-03-14T04:30:47.554Z,20.78
2023-03-14T04:33:18.016Z,21.02
2023-03-14T04:35:44.927Z,21.19
2023-03-14T04:38:11.679Z,21.25
2023-03-14T04:40:38.527Z,21.32
2023-03-14T04:43:05.257Z,21.46
2023-03-14T04:45:32.000Z,21.55
2023-03-14T04:47:58.764Z,21.67
2023-03-14T04:50:25.498Z,21.76
2023-03-14T04:52:52.249Z,21.77
2023-03-14T04:55:18.998Z,21.84
2023-03-14T04:57:45.733Z,21.89
2023-03-14T05:00:12.477Z,21.98
2023-03-14T05:02:39.326Z,21.61
2023-03-14T05:05:06.108Z,18.76
2023-03-14T05:07:32.849Z,17.99
2023-03-14T05:09:59.598Z,19.35
2023-03-14T05:12:26.332Z,20.25
2023-03-14T05:14:53.061Z,20.64
2023-03-14T05:17:19.884Z,20.82
2023-03-14T05:19:46.641Z,21.10
2023-03-14T05:22:13.371Z,21.29
2023-03-14T05:24:40.182Z,21.32
2023-03-14T05:27:06.912Z,21.43
2023-03-14T05:29:33.670Z,21.59
2023-03-14T05:32:00.507Z,21.56
2023-03-14T05:34:27.241Z,21.60
2023-03-14T05:36:53.995Z,21.72
2023-03-14T05:39:20.751Z,21.82
2023-03-14T05:41:47.487Z,21.86
2023-03-14T05:44:14.219Z,21.90
2023-03-14T05:46:40.984Z,21.87
2023-03-14T05:49:07.709Z,21.63
2023-03-14T05:51:34.440Z,18.56
2023-03-14T05:54:01.210Z,18.27
2023-03-14T05:56:27.949Z,19.41
2023-03-14T05:58:55.772Z,20.35
2023-03-14T06:01:22.596Z,20.70
2023-03-14T06:03:49.358Z,20.96
2023-03-14T06:06:17.547Z,21.18
2023-03-14T06:08:44.317Z,21.29
2023-03-14T06:11:11.168Z,21.35
2023-03-14T06:13:37.922Z,21.53
2023-03-14T06:16:04.745Z,21.62
2023-03-14T06:18:31.640Z,21.60
2023-03-14T06:20:58.455Z,21.67
2023-03-14T06:23:26.106Z,21.76
2023-03-14T06:25:52.840Z,21.81
2023-03-14T06:28:19.619Z,21.80
2023-03-14T06:30:46.474Z,21.97
2023-03-14T06:33:13.308Z,21.93
2023-03-14T06:35:40.125Z,21.58
2023-03-14T06:38:06.932Z,18.46
2023-03-14T06:40:33.673Z,18.71
2023-03-14T06:43:00.475Z,19.97
2023-03-14T06:45:27.279Z,20.58
2023-03-14T06:47:54.054Z,20.83
2023-03-14T06:50:22.993Z,21.06
2023-03-14T06:52:49.851Z,21.23
2023-03-14T06:55:16.674Z,21.45
2023-03-14T06:57:44.929Z,21.56
2023-03-14T07:00:11.724Z,21.49
2023-03-14T07:02:43.120Z,21.68
2023-03-14T07:05:11.222Z,21.72
2023-03-14T07:07:38.034Z,21.79
2023-03-14T07:10:04.845Z,21.85
2023-03-14T07:12:31.616Z,21.83
2023-03-14T07:15:03.290Z,22.06
2023-03-14T07:17:38.843Z,21.86
2023-03-14T07:20:07.439Z,18.89
2023-03-14T07:22:35.318Z,17.25
2023-03-14T07:25:02.253Z,18.48
2023-03-14T07:27:29.090Z,19.61
2023-03-14T07:29:55.840Z,20.25
2023-03-14T07:32:22.597Z,20.64
2023-03-14T07:34:49.617Z,20.85
2023-03-14T07:37:16.379Z,20.95
2023-03-14T07:39:43.193Z,21.21
2023-03-14T07:42:10.075Z,21.33
2023-03-14T07:44:36.805Z,21.30
2023-03-14T07:47:03.586Z,21.35
2023-03-14T07:49:30.378Z,21.53
2023-03-14T07:51:57.221Z,21.60
2023-03-14T07:54:24.554Z,21.67
2023-03-14T07:56:51.353Z,21.80
2023-03-14T07:59:18.159Z,21.80
2023-03-14T08:01:44.968Z,21.94
2023-03-14T08:04:11.877Z,22.07
2023-03-14T08:06:38.783Z,22.00
2023-03-14T08:09:05.594Z,19.27
2023-03-14T08:11:32.377Z,19.34
2023-03-14T08:13:59.206Z,20.16
2023-03-14T08:16:26.002Z,20.61
2023-03-14T08:18:52.819Z,20.95
2023-03-14T08:21:19.597Z,21.13
2023-03-14T08:23:46.365Z,21.31
2023-03-14T08:26:13.196Z,21.51
2023-03-14T08:28:40.004Z,21.61
2023-03-14T08:31:06.864Z,21.62
2023-03-14T08:33:33.776Z,21.72
2023-03-14T08:36:00.688Z,21.88
2023-03-14T08:38:27.485Z,21.83
2023-03-14T08:40:54.257Z,21.92
2023-03-14T08:43:21.075Z,22.01
2023-03-14T08:45:47.824Z,19.61
2023-03-14T08:48:14.708Z,19.03
2023-03-14T08:50:41.710Z,19.70
2023-03-14T08:53:08.505Z,20.53
2023-03-14T08:55:35.396Z,20.77
2023-03-14T08:58:02.168Z,20.98
2023-03-14T09:00:28.971Z,21.31
2023-03-14T09:02:55.815Z,21.40
2023-03-14T09:05:22.587Z,21.44
2023-03-14T09:07:49.379Z,21.55
2023-03-14T09:10:16.179Z,21.63
2023-03-14T09:12:43.080Z,21.78
2023-03-14T09:15:09.927Z,21.74
2023-03-14T09:17:36.688Z,21.93
2023-03-14T09:20:06.692Z,21.97
2023-03-14T09:22:34.436Z,21.71
2023-03-14T09:25:01.309Z,19.23
2023-03-14T09:27:28.098Z,19.31
2023-03-14T09:29:54.852Z,20.06
2023-03-14T09:32:21.732Z,20.69
2023-03-14T09:34:48.745Z,20.96
2023-03-14T09:37:17.099Z,21.24
2023-03-14T09:39:43.938Z,21.30
2023-03-14T09:42:10.692Z,21.47
2023-03-14T09:44:37.465Z,21.62
2023-03-14T09:47:04.480Z,21.58
2023-03-14T09:49:31.554Z,21.82
2023-03-14T09:51:58.335Z,21.99
2023-03-14T09:54:25.111Z,21.80
2023-03-14T09:56:51.851Z,21.93
2023-03-14T09:59:18.612Z,21.95
2023-03-14T10:01:45.406Z,20.57
2023-03-14T10:04:14.280Z,19.23
2023-03-14T10:06:41.109Z,19.41
2023-03-14T10:09:07.900Z,20.48
2023-03-14T10:11:34.682Z,20.87
2023-03-14T10:14:01.429Z,21.20
2023-03-14T10:16:28.206Z,21.22
2023-03-14T10:18:54.968Z,21.42
2023-03-14T10:21:21.739Z,21.62
2023-03-14T10:23:49.843Z,21.67
2023-03-14T10:26:16.937Z,21.74
2023-03-14T10:28:43.695Z,21.87
2023-03-14T10:31:10.521Z,21.85
2023-03-14T10:33:37.298Z,22.08
2023-03-14T10:36:04.106Z,19.45
2023-03-14T10:38:30.962Z,19.28
2023-03-14T10:40:58.506Z,20.00
2023-03-14T10:43:27.690Z,20.66
2023-03-14T10:45:58.567Z,21.06
2023-03-14T10:48:25.340Z,21.31
2023-03-14T10:50:52.072Z,21.38
2023-03-14T10:53:19.561Z,21.49
2023-03-14T10:55:46.392Z,21.63
2023-03-14T10:58:13.131Z,21.65
2023-03-14T11:00:39.888Z,21.85
2023-03-14T11:03:06.943Z,21.87
2023-03-14T11:05:33.895Z,21.87
2023-03-14T11:08:00.719Z,21.90
2023-03-14T11:10:27.502Z,20.23
2023-03-14T11:12:54.321Z,18.98
2023-03-14T11:15:21.167Z,19.50
2023-03-14T11:17:48.079Z,20.34
2023-03-14T11:20:15.057Z,20.88
2023-03-14T11:22:41.910Z,21.14
2023-03-14T11:25:08.760Z,21.22
2023-03-14T11:27:35.537Z,21.55
2023-03-14T11:30:02.452Z,21.48
2023-03-14T11:32:29.234Z,21.75
2023-03-14T11:34:56.072Z,21.73
2023-03-14T11:37:22.972Z,21.81
2023-03-14T11:39:50.198Z,21.90
2023-03-14T11:42:17.179Z,21.95
2023-03-14T11:44:43.959Z,22.07
2023-03-14T11:47:10.971Z,20.18
2023-03-14T11:49:39.668Z,19.24
2023-03-14T11:52:06.436Z,19.85
2023-03-14T11:54:33.170Z,20.63
2023-03-14T11:56:59.909Z,21.04
2023-03-14T11:59:26.746Z,21.17
2023-03-14T12:01:53.521Z,21.33
2023-03-14T12:04:20.408Z,21.48
2023-03-14T12:06:47.193Z,21.60
2023-03-14T12:09:13.916Z,21.69
2023-03-14T12:11:40.741Z,21.75
2023-03-14T12:14:07.516Z,21.92
2023-03-14T12:16:34.649Z,21.91
2023-03-14T12:19:01.520Z,22.07
2023-03-14T12:21:28.301Z,19.65
2023-03-14T12:23:55.042Z,19.46
2023-03-14T12:26:21.835Z,20.15
2023-03-14T12:28:49.244Z,20.70
2023-03-14T12:31:16.034Z,21.05
2023-03-14T12:33:42.857Z,21.26
2023-03-14T12:36:09.848Z,21.27
2023-03-14T12:38:36.591Z,21.52
2023-03-14T12:41:03.354Z,21.54
2023-03-14T12:43:30.147Z,21.72
2023-03-14T12:45:56.936Z,21.74
2023-03-14T12:48:23.745Z,21.87
2023-03-14T12:50:50.527Z,22.00
2023-03-14T12:53:17.290Z,19.95
2023-03-14T12:55:44.039Z,19.08
2023-03-14T12:58:10.796Z,19.72
2023-03-14T13:00:37.549Z,20.47
2023-03-14T13:03:04.323Z,20.90
2023-03-14T13:05:31.258Z,21.22
2023-03-14T13:07:58.164Z,21.31
2023-03-14T13:10:24.970Z,21.43
2023-03-14T13:12:52.512Z,21.51
2023-03-14T13:15:19.413Z,21.77
2023-03-14T13:17:46.267Z,21.70
2023-03-14T13:20:13.115Z,21.80
2023-03-14T13:22:40.094Z,21.91
2023-03-14T13:25:07.160Z,21.90
2023-03-14T13:27:33.962Z,19.83
2023-03-14T13:30:00.766Z,19.08
2023-03-14T13:32:27.759Z,19.35
2023-03-14T13:34:54.562Z,20.42
2023-03-14T13:37:21.326Z,20.88
2023-03-14T13:39:48.107Z,21.21
2023-03-14T13:42:14.932Z,21.34
2023-03-14T13:44:41.739Z,21.46
2023-03-14T13:47:08.503Z,21.45
2023-03-14T13:49:36.483Z,21.60
2023-03-14T13:52:03.247Z,21.78
2023-03-14T13:54:29.994Z,21.77
2023-03-14T13:56:56.770Z,21.95
2023-03-14T13:59:23.549Z,21.95
2023-03-14T14:01:50.370Z,21.23
2023-03-14T14:04:17.181Z,19.66
2023-03-14T14:06:43.938Z,18.80
2023-03-14T14:09:10.696Z,19.51
2023-03-14T14:11:47.121Z,19.16
2023-03-14T14:14:17.958Z,19.10
2023-03-14T14:16:44.888Z,19.02
2023-03-14T14:19:11.634Z,18.91
2023-03-14T14:21:38.378Z,18.86
2023-03-14T14:24:07.398Z,18.70
2023-03-14T14:26:35.124Z,18.65
2023-03-14T14:29:01.929Z,18.53
2023-03-14T14:31:28.750Z,18.48
2023-03-14T14:33:58.505Z,18.31
2023-03-14T14:36:25.290Z,18.30
2023-03-14T14:38:52.041Z,18.07
2023-03-14T14:41:20.136Z,17.62
2023-03-14T14:43:47.073Z,17.79
2023-03-14T14:46:13.926Z,17.32
2023-03-14T14:48:40.689Z,17.39
2023-03-14T14:51:07.441Z,17.40
2023-03-14T14:53:34.275Z,17.43
2023-03-14T14:56:01.061Z,17.50
2023-03-14T14:58:27.844Z,17.44
2023-03-14T15:00:54.626Z,17.27
2023-03-14T15:03:21.493Z,17.64
2023-03-14T15:05:48.280Z,18.62
2023-03-14T15:08:15.094Z,19.07
2023-03-14T15:10:41.961Z,19.17
2023-03-14T15:13:08.741Z,19.50
2023-03-14T15:15:35.838Z,19.61
2023-03-14T15:18:02.638Z,19.73
2023-03-14T15:20:29.637Z,19.89
2023-03-14T15:22:56.550Z,20.06
2023-03-14T15:25:47.457Z,20.18
2023-03-14T15:28:10.060Z,20.28
2023-03-14T15:30:36.787Z,20.38
2023-03-14T15:33:03.648Z,20.58
2023-03-14T15:35:30.460Z,20.61
2023-03-14T15:37:57.219Z,20.68
2023-03-14T15:40:23.948Z,20.81
2023-03-14T15:42:50.832Z,20.79
2023-03-14T15:45:17.573Z,20.79
2023-03-14T15:47:44.327Z,20.95
2023-03-14T15:50:11.342Z,21.00
2023-03-14T15:52:38.133Z,21.13
2023-03-14T15:55:04.991Z,21.20
2023-03-14T15:57:31.874Z,21.29
2023-03-14T15:59:58.901Z,21.34
2023-03-14T16:02:25.656Z,21.43
2023-03-14T16:04:52.461Z,21.44
2023-03-14T16:07:19.247Z,21.53
2023-03-14T16:09:46.017Z,21.56
2023-03-14T16:12:12.784Z,21.73
2023-03-14T16:14:43.508Z,21.75
2023-03-14T16:17:13.479Z,21.71
2023-03-14T16:19:40.258Z,21.70
2023-03-14T16:22:07.084Z,21.85
2023-03-14T16:24:33.824Z,21.88
2023-03-14T16:27:00.581Z,21.88
2023-03-14T16:29:27.354Z,21.95
2023-03-14T16:31:54.195Z,20.88
2023-03-14T16:34:20.966Z,19.56
2023-03-14T16:36:48.035Z,19.13
2023-03-14T16:39:14.815Z,19.43
2023-03-14T16:41:42.139Z,19.12
2023-03-14T16:44:08.909Z,18.85
2023-03-14T16:46:36.310Z,18.97
2023-03-14T16:49:03.249Z,18.86
2023-03-14T16:51:30.007Z,18.76
2023-03-14T16:53:56.855Z,19.10
2023-03-14T16:56:23.640Z,19.72
2023-03-14T16:58:50.664Z,20.13
2023-03-14T17:01:18.461Z,20.40
2023-03-14T17:03:45.465Z,20.62
2023-03-14T17:06:12.366Z,20.71
2023-03-14T17:08:39.139Z,20.87
2023-03-14T17:11:06.004Z,20.93
2023-03-14T17:13:32.745Z,21.10
2023-03-14T17:15:59.605Z,21.17
2023-03-14T17:18:26.390Z,21.15
2023-03-14T17:20:53.214Z,21.23
2023-03-14T17:23:20.017Z,21.35
2023-03-14T17:25:46.772Z,21.41
2023-03-14T17:28:13.514Z,21.60
2023-03-14T17:30:40.351Z,21.56
2023-03-14T17:33:07.145Z,21.72
2023-03-14T17:35:33.924Z,21.72
2023-03-14T17:38:00.705Z,21.72
2023-03-14T17:40:27.551Z,21.86
2023-03-14T17:42:54.299Z,22.10
2023-03-14T17:45:21.123Z,21.90
2023-03-14T17:47:47.870Z,21.95
2023-03-14T17:50:14.653Z,22.15
2023-03-14T17:52:41.436Z,20.33
2023-03-14T17:55:08.206Z,19.25
2023-03-14T17:57:35.056Z,18.98
2023-03-14T18:00:01.839Z,19.10
2023-03-14T18:02:29.119Z,19.16
2023-03-14T18:04:55.934Z,19.54
2023-03-14T18:07:22.705Z,19.71
2023-03-14T18:09:49.433Z,19.35
2023-03-14T18:12:16.220Z,19.09
2023-03-14T18:14:45.783Z,18.69
2023-03-14T18:17:13.253Z,18.66
2023-03-14T18:19:40.100Z,19.36
2023-03-14T18:22:06.941Z,19.85
2023-03-14T18:24:33.697Z,20.24
2023-03-14T18:27:00.578Z,20.43
2023-03-14T18:29:27.360Z,20.62
2023-03-14T18:31:55.524Z,20.68
2023-03-14T18:34:22.384Z,20.86
2023-03-14T18:36:49.378Z,20.91
2023-03-14T18:39:16.144Z,21.01
2023-03-14T18:41:42.982Z,21.19
2023-03-14T18:44:09.776Z,21.28
2023-03-14T18:46:36.563Z,21.39
2023-03-14T18:49:04.013Z,21.37
2023-03-14T18:51:30.941Z,21.54
2023-03-14T18:54:09.442Z,21.61
2023-03-14T18:56:37.454Z,21.65
2023-03-14T18:59:04.216Z,21.65
2023-03-14T19:01:31.451Z,21.71
2023-03-14T19:03:58.329Z,21.73
2023-03-14T19:06:25.196Z,21.89
2023-03-14T19:08:52.058Z,21.91
2023-03-14T19:11:18.863Z,22.20
2023-03-14T19:13:45.611Z,21.34
2023-03-14T19:16:12.872Z,19.31
2023-03-14T19:18:39.915Z,18.71
2023-03-14T19:21:06.640Z,19.45
2023-03-14T19:23:33.386Z,19.82
2023-03-14T19:26:02.650Z,20.31
2023-03-14T19:28:29.401Z,20.79
2023-03-14T19:30:56.197Z,20.97
2023-03-14T19:33:22.989Z,21.13
2023-03-14T19:35:49.858Z,21.20
2023-03-14T19:38:16.785Z,21.35
2023-03-14T19:40:44.935Z,21.51
2023-03-14T19:43:11.691Z,21.50
2023-03-14T19:45:38.477Z,21.76
2023-03-14T19:48:05.263Z,21.73
2023-03-14T19:50:32.040Z,21.81
2023-03-14T19:52:58.796Z,21.80
2023-03-14T19:55:25.624Z,21.93
2023-03-14T19:57:52.417Z,21.91
2023-03-14T20:00:19.253Z,22.05
2023-03-14T20:02:46.126Z,22.06
2023-03-14T20:05:13.286Z,20.33
2023-03-14T20:07:40.088Z,18.98
2023-03-14T20:10:07.387Z,19.01
2023-03-14T20:12:35.033Z,19.24
2023-03-14T20:15:01.809Z,19.91
2023-03-14T20:17:29.855Z,20.51
2023-03-14T20:19:58.103Z,20.91
2023-03-14T20:22:24.858Z,21.03
2023-03-14T20:24:52.318Z,21.31
2023-03-14T20:27:19.105Z,21.25
2023-03-14T20:29:45.870Z,21.41
2023-03-14T20:32:12.658Z,21.58
2023-03-14T20:34:40.014Z,21.58
2023-03-14T20:37:08.425Z,21.80
2023-03-14T20:39:35.972Z,21.75
2023-03-14T20:42:03.286Z,21.74
2023-03-14T20:44:30.452Z,21.88
2023-03-14T20:47:00.395Z,21.94
2023-03-14T20:49:27.146Z,21.93
2023-03-14T20:51:53.977Z,21.33
2023-03-14T20:54:20.992Z,19.47
2023-03-14T20:56:47.952Z,18.49
2023-03-14T20:59:14.777Z,19.33
2023-03-14T21:01:41.620Z,19.57
2023-03-14T21:04:08.404Z,19.80
2023-03-14T21:06:35.195Z,20.14
2023-03-14T21:09:05.553Z,20.57
2023-03-14T21:11:36.111Z,20.87
2023-03-14T21:14:02.875Z,21.04
2023-03-14T21:16:29.647Z,21.02
2023-03-14T21:18:56.437Z,21.21
2023-03-14T21:21:23.174Z,21.43
2023-03-14T21:23:54.086Z,21.39
2023-03-14T21:26:21.354Z,21.57
2023-03-14T21:28:48.079Z,21.68
2023-03-14T21:31:15.047Z,21.69
2023-03-14T21:33:41.873Z,21.69
2023-03-14T21:36:08.694Z,21.81
2023-03-14T21:38:35.449Z,21.93
2023-03-14T21:41:03.109Z,21.98
2023-03-14T21:43:29.917Z,22.04
2023-03-14T21:45:56.770Z,22.01
2023-03-14T21:48:23.513Z,19.91
2023-03-14T21:50:50.255Z,18.47
2023-03-14T21:53:17.023Z,18.97
2023-03-14T21:55:43.774Z,19.98
2023-03-14T21:58:14.265Z,20.61
2023-03-14T22:00:41.095Z,20.85
2023-03-14T22:03:13.142Z,20.98
2023-03-14T22:05:40.583Z,21.18
2023-03-14T22:08:07.539Z,21.35
2023-03-14T22:10:34.280Z,21.46
2023-03-14T22:13:01.079Z,21.48
2023-03-14T22:15:27.901Z,21.53
2023-03-14T22:17:54.682Z,21.60
2023-03-14T22:20:21.437Z,21.72
2023-03-14T22:22:48.218Z,21.73
2023-03-14T22:25:14.961Z,21.88
2023-03-14T22:27:41.752Z,21.98
2023-03-14T22:30:08.545Z,21.94
2023-03-14T22:32:35.307Z,22.06
2023-03-14T22:35:02.110Z,20.74
2023-03-14T22:37:28.862Z,18.78
2023-03-14T22:39:55.627Z,17.96
2023-03-14T22:42:22.415Z,19.60
2023-03-14T22:44:49.253Z,20.34
2023-03-14T22:47:16.020Z,20.72
2023-03-14T22:49:42.844Z,20.87
2023-03-14T22:52:09.603Z,21.11
2023-03-14T22:54:36.349Z,21.26
2023-03-14T22:57:03.122Z,21.36
2023-03-14T22:59:30.005Z,21.40
2023-03-14T23:01:58.932Z,21.58
2023-03-14T23:04:25.671Z,21.56
2023-03-14T23:06:52.465Z,21.76
2023-03-14T23:09:19.295Z,21.75
2023-03-14T23:11:46.059Z,21.82
2023-03-14T23:14:13.631Z,22.03
2023-03-14T23:16:41.131Z,21.88
2023-03-14T23:19:09.606Z,22.04
2023-03-14T23:21:36.472Z,20.10
2023-03-14T23:24:05.660Z,17.49
2023-03-14T23:26:35.225Z,17.92
2023-03-14T23:29:01.992Z,19.19
2023-03-14T23:31:28.764Z,19.97
2023-03-14T23:33:55.509Z,20.38
2023-03-14T23:36:22.439Z,20.68
2023-03-14T23:38:49.286Z,21.03
2023-03-14T23:41:16.099Z,21.09
2023-03-14T23:43:42.880Z,21.07
2023-03-14T23:46:09.671Z,21.23
2023-03-14T23:48:36.585Z,21.36
2023-03-14T23:51:03.417Z,21.45
2023-03-14T23:53:30.246Z,21.42
2023-03-14T23:55:56.972Z,21.52
2023-03-14T23:58:23.940Z,21.57
